createdAt,value
2018-07-14T00:00:33.516Z,7.83
2018-07-14T00:03:03.696Z,7.43
2018-07-14T00:05:33.808Z,8.00
2018-07-14T00:08:03.511Z,8.13
2018-07-14T00:10:33.765Z,9.57
2018-07-14T00:13:03.621Z,8.30
2018-07-14T00:15:33.672Z,7.93
2018-07-14T00:18:03.159Z,8.17
2018-07-14T00:20:33.624Z,7.50
2018-07-14T00:23:03.956Z,7.40
2018-07-14T00:25:38.588Z,7.73
2018-07-14T00:28:11.292Z,11.60
2018-07-14T00:30:42.650Z,8.13
2018-07-14T00:33:12.752Z,10.30
2018-07-14T00:35:41.496Z,8.70
2018-07-14T00:38:12.185Z,8.33
2018-07-14T00:40:40.900Z,8.60
2018-07-14T00:43:09.439Z,9.17
2018-07-14T00:45:38.021Z,8.73
2018-07-14T00:48:06.653Z,8.60
2018-07-14T00:50:35.160Z,8.63
2018-07-14T00:53:03.788Z,8.00
2018-07-14T00:55:32.305Z,8.27
2018-07-14T00:58:00.848Z,8.50
2018-07-14T01:00:29.364Z,9.20
2018-07-14T01:02:57.904Z,9.05
2018-07-14T01:05:26.451Z,10.28
2018-07-14T01:07:55.001Z,8.93
2018-07-14T01:10:23.525Z,8.60
2018-07-14T01:12:52.145Z,8.73
2018-07-14T01:15:20.675Z,8.53
2018-07-14T01:17:49.227Z,9.20
2018-07-14T01:20:17.792Z,9.47
2018-07-14T01:22:46.322Z,10.53
2018-07-14T01:25:14.885Z,9.60
2018-07-14T01:27:43.397Z,9.30
2018-07-14T01:30:12.060Z,8.65
2018-07-14T01:32:41.096Z,9.65
2018-07-14T01:35:09.738Z,8.57
2018-07-14T01:37:38.265Z,10.27
2018-07-14T01:40:06.857Z,9.80
2018-07-14T01:42:35.381Z,10.17
2018-07-14T01:45:03.949Z,9.53
2018-07-14T01:47:32.469Z,9.20
2018-07-14T01:50:01.026Z,10.10
2018-07-14T01:52:29.544Z,9.03
2018-07-14T01:54:58.372Z,9.57
2018-07-14T01:57:26.915Z,9.77
2018-07-14T01:59:55.452Z,9.57
2018-07-14T02:02:24.291Z,10.50
2018-07-14T02:04:52.844Z,9.80
2018-07-14T02:07:21.359Z,9.30
2018-07-14T02:09:49.912Z,9.27
2018-07-14T02:12:18.420Z,9.03
2018-07-14T02:14:46.968Z,9.53
2018-07-14T02:17:15.496Z,9.67
2018-07-14T02:19:44.079Z,10.27
2018-07-14T02:22:12.595Z,10.10
2018-07-14T02:24:41.257Z,9.43
2018-07-14T02:27:09.788Z,8.80
2018-07-14T02:29:38.341Z,9.07
2018-07-14T02:32:06.893Z,10.63
2018-07-14T02:34:35.508Z,10.37
2018-07-14T02:37:04.084Z,10.10
2018-07-14T02:39:32.679Z,10.77
2018-07-14T02:42:01.268Z,10.32
2018-07-14T02:44:29.936Z,10.40
2018-07-14T02:46:58.520Z,11.00
2018-07-14T02:49:27.095Z,11.07
2018-07-14T02:51:55.645Z,10.77
2018-07-14T02:54:24.219Z,9.30
2018-07-14T02:56:52.775Z,10.93
2018-07-14T02:59:21.393Z,11.22
2018-07-14T03:01:49.965Z,10.13
2018-07-14T03:04:18.572Z,10.77
2018-07-14T03:06:47.149Z,10.70
2018-07-14T03:09:15.693Z,11.93
2018-07-14T03:11:44.269Z,9.53
2018-07-14T03:14:12.801Z,9.83
2018-07-14T03:16:41.546Z,9.55
2018-07-14T03:19:10.297Z,9.57
2018-07-14T03:21:38.883Z,11.00
2018-07-14T03:24:07.432Z,10.18
2018-07-14T03:26:36.033Z,11.00
2018-07-14T03:29:04.621Z,10.27
2018-07-14T03:31:33.195Z,10.53
2018-07-14T03:34:01.777Z,10.97
2018-07-14T03:36:30.345Z,10.57
2018-07-14T03:38:58.907Z,11.40
2018-07-14T03:41:27.505Z,10.10
2018-07-14T03:43:56.068Z,10.37
2018-07-14T03:46:24.648Z,10.43
2018-07-14T03:48:53.187Z,10.25
2018-07-14T03:51:21.775Z,12.85
2018-07-14T03:53:50.328Z,10.90
2018-07-14T03:56:18.900Z,10.67
2018-07-14T03:58:47.431Z,9.70
2018-07-14T04:01:15.996Z,10.13
2018-07-14T04:03:44.556Z,11.83
2018-07-14T04:06:13.400Z,11.13
2018-07-14T04:08:42.388Z,11.88
2018-07-14T04:11:10.976Z,11.97
2018-07-14T04:13:39.560Z,11.10
2018-07-14T04:16:08.161Z,11.13
2018-07-14T04:18:36.688Z,10.33
2018-07-14T04:21:05.289Z,11.27
2018-07-14T04:23:33.824Z,10.63
2018-07-14T04:26:02.389Z,14.40
2018-07-14T04:28:30.924Z,10.70
2018-07-14T04:30:59.516Z,9.63
2018-07-14T04:33:28.078Z,11.20
2018-07-14T04:35:56.636Z,10.00
2018-07-14T04:38:25.160Z,11.10
2018-07-14T04:40:53.733Z,11.27
2018-07-14T04:43:22.274Z,11.53
2018-07-14T04:45:50.838Z,10.70
2018-07-14T04:48:19.404Z,11.13
2018-07-14T04:50:47.968Z,10.83
2018-07-14T04:53:16.588Z,11.03
2018-07-14T04:55:45.070Z,9.87
2018-07-14T04:58:13.617Z,10.63
2018-07-14T05:00:42.637Z,10.88
2018-07-14T05:03:11.197Z,11.27
2018-07-14T05:05:39.781Z,10.67
2018-07-14T05:08:08.348Z,10.73
2018-07-14T05:10:36.872Z,11.67
2018-07-14T05:13:05.556Z,12.00
2018-07-14T05:15:34.101Z,11.17
2018-07-14T05:18:02.705Z,12.68
2018-07-14T05:20:31.265Z,11.40
2018-07-14T05:22:59.849Z,12.13
2018-07-14T05:25:28.441Z,11.37
2018-07-14T05:27:57.010Z,10.63
2018-07-14T05:30:25.584Z,13.03
2018-07-14T05:32:54.165Z,10.68
2018-07-14T05:35:22.796Z,11.50
2018-07-14T05:37:51.656Z,11.13
2018-07-14T05:40:20.200Z,12.30
2018-07-14T05:42:48.768Z,9.37
2018-07-14T05:45:17.308Z,9.53
2018-07-14T05:47:45.903Z,10.40
2018-07-14T05:50:15.116Z,10.98
2018-07-14T05:52:43.712Z,11.30
2018-07-14T05:55:12.264Z,10.60
2018-07-14T05:57:40.849Z,10.40
2018-07-14T06:00:10.068Z,10.43
2018-07-14T06:02:38.656Z,9.70
2018-07-14T06:05:07.224Z,9.30
2018-07-14T06:07:35.819Z,11.63
2018-07-14T06:10:04.416Z,9.50
2018-07-14T06:12:32.987Z,9.60
2018-07-14T06:15:01.537Z,8.53
2018-07-14T06:17:30.136Z,8.13
2018-07-14T06:19:58.720Z,8.50
2018-07-14T06:22:27.282Z,9.00
2018-07-14T06:24:55.825Z,7.83
2018-07-14T06:27:24.417Z,8.07
2018-07-14T06:29:53.217Z,8.23
2018-07-14T06:32:21.790Z,11.20
2018-07-14T06:34:50.352Z,9.37
2018-07-14T06:37:18.901Z,8.37
2018-07-14T06:39:47.453Z,7.97
2018-07-14T06:42:16.289Z,8.60
2018-07-14T06:44:44.804Z,8.27
2018-07-14T06:47:13.320Z,7.97
2018-07-14T06:49:41.882Z,8.07
2018-07-14T06:52:10.412Z,7.57
2018-07-14T06:54:38.984Z,7.50
2018-07-14T06:57:07.552Z,8.70
2018-07-14T06:59:36.108Z,11.27
2018-07-14T07:02:11.199Z,7.67
2018-07-14T07:04:39.760Z,7.60
2018-07-14T07:07:08.485Z,7.60
2018-07-14T07:09:37.035Z,7.47
2018-07-14T07:12:05.568Z,7.63
2018-07-14T07:14:34.128Z,7.17
2018-07-14T07:17:02.712Z,7.03
2018-07-14T07:19:31.283Z,7.77
2018-07-14T07:21:59.821Z,7.00
2018-07-14T07:24:28.389Z,6.72
2018-07-14T07:26:56.921Z,6.43
2018-07-14T07:29:25.465Z,6.47
2018-07-14T07:31:53.998Z,5.80
2018-07-14T07:34:22.596Z,5.60
2018-07-14T07:36:51.153Z,6.22
2018-07-14T07:39:19.709Z,6.13
2018-07-14T07:41:48.269Z,6.40
2018-07-14T07:44:17.124Z,6.40
2018-07-14T07:46:46.482Z,5.75
2018-07-14T07:49:15.046Z,5.77
2018-07-14T07:51:43.577Z,6.10
2018-07-14T07:54:12.139Z,5.67
2018-07-14T07:56:40.664Z,5.43
2018-07-14T07:59:09.331Z,5.43
2018-07-14T08:01:37.828Z,7.40
2018-07-14T08:04:06.468Z,6.10
2018-07-14T08:06:35.274Z,5.10
2018-07-14T08:09:04.594Z,5.93
2018-07-14T08:11:33.117Z,5.93
2018-07-14T08:14:11.992Z,6.23
2018-07-14T08:16:53.954Z,5.93
2018-07-14T08:19:28.365Z,6.45
2018-07-14T08:22:05.555Z,5.90
2018-07-14T08:24:34.114Z,5.87
2018-07-14T08:27:02.661Z,5.25
2018-07-14T08:29:31.223Z,4.73
2018-07-14T08:31:59.737Z,6.03
2018-07-14T08:34:28.480Z,5.62
2018-07-14T08:36:57.016Z,4.87
2018-07-14T08:39:25.570Z,5.07
2018-07-14T08:41:54.126Z,5.03
2018-07-14T08:44:22.692Z,7.30
2018-07-14T08:46:51.249Z,6.05
2018-07-14T08:49:20.041Z,4.87
2018-07-14T08:51:48.557Z,7.13
2018-07-14T08:54:17.152Z,5.40
2018-07-14T08:56:46.746Z,6.67
2018-07-14T08:59:15.288Z,4.57
2018-07-14T09:01:44.088Z,5.80
2018-07-14T09:04:12.633Z,5.10
2018-07-14T09:06:41.168Z,4.80
2018-07-14T09:09:09.836Z,5.07
2018-07-14T09:11:38.401Z,4.80
2018-07-14T09:14:07.006Z,4.77
2018-07-14T09:16:36.874Z,4.00
2018-07-14T09:19:08.115Z,4.63
2018-07-14T09:21:44.439Z,4.43
2018-07-14T09:24:17.217Z,3.93
2018-07-14T09:26:47.060Z,4.50
2018-07-14T09:29:23.520Z,4.23
2018-07-14T09:31:53.024Z,3.67
2018-07-14T09:34:22.389Z,4.10
2018-07-14T09:36:51.568Z,5.13
2018-07-14T09:39:20.128Z,6.03
2018-07-14T09:41:48.697Z,4.47
2018-07-14T09:44:18.191Z,4.53
2018-07-14T09:46:46.785Z,3.80
2018-07-14T09:49:15.325Z,4.27
2018-07-14T09:51:43.926Z,3.90
2018-07-14T09:54:12.481Z,4.73
2018-07-14T09:56:41.080Z,6.63
2018-07-14T09:59:09.640Z,3.20
2018-07-14T10:01:38.249Z,4.33
2018-07-14T10:04:06.813Z,3.80
2018-07-14T10:06:35.387Z,6.47
2018-07-14T10:09:05.003Z,3.30
2018-07-14T10:11:33.586Z,3.92
2018-07-14T10:14:02.141Z,5.60
2018-07-14T10:16:30.717Z,6.03
2018-07-14T10:18:59.256Z,3.87
2018-07-14T10:21:27.849Z,4.30
2018-07-14T10:23:56.388Z,3.97
2018-07-14T10:26:25.281Z,3.87
2018-07-14T10:28:54.134Z,3.80
2018-07-14T10:31:22.924Z,4.60
2018-07-14T10:33:51.503Z,4.03
2018-07-14T10:36:20.076Z,4.70
2018-07-14T10:38:49.135Z,4.17
2018-07-14T10:41:17.643Z,4.10
2018-07-14T10:43:46.209Z,4.40
2018-07-14T10:46:14.819Z,4.03
2018-07-14T10:48:43.416Z,4.67
2018-07-14T10:51:12.012Z,4.03
2018-07-14T10:53:40.561Z,4.27
2018-07-14T10:56:09.247Z,4.53
2018-07-14T10:58:37.813Z,5.73
2018-07-14T11:01:06.859Z,4.23
2018-07-14T11:03:35.433Z,4.07
2018-07-14T11:06:04.005Z,4.77
2018-07-14T11:08:32.560Z,4.47
2018-07-14T11:11:01.136Z,4.10
2018-07-14T11:13:29.684Z,4.60
2018-07-14T11:15:58.268Z,5.50
2018-07-14T11:18:26.802Z,4.40
2018-07-14T11:20:55.382Z,4.73
2018-07-14T11:23:24.010Z,3.60
2018-07-14T11:25:52.519Z,3.70
2018-07-14T11:28:21.172Z,4.20
2018-07-14T11:30:49.723Z,6.03
2018-07-14T11:33:19.021Z,4.55
2018-07-14T11:35:47.561Z,4.80
2018-07-14T11:38:16.141Z,4.27
2018-07-14T11:40:44.680Z,4.80
2018-07-14T11:43:13.267Z,4.90
2018-07-14T11:45:41.829Z,4.53
2018-07-14T11:48:10.393Z,4.73
2018-07-14T11:50:38.949Z,4.83
2018-07-14T11:53:07.520Z,4.70
2018-07-14T11:55:36.053Z,4.83
2018-07-14T11:58:04.621Z,4.87
2018-07-14T12:00:33.216Z,4.67
2018-07-14T12:03:01.792Z,4.87
2018-07-14T12:05:30.316Z,4.80
2018-07-14T12:07:58.924Z,6.97
2018-07-14T12:10:27.467Z,4.50
2018-07-14T12:12:56.057Z,9.10
2018-07-14T12:15:24.613Z,6.13
2018-07-14T12:17:53.193Z,5.03
2018-07-14T12:20:22.045Z,5.37
2018-07-14T12:22:51.397Z,5.07
2018-07-14T12:25:19.930Z,4.60
2018-07-14T12:27:48.500Z,4.97
2018-07-14T12:30:17.060Z,5.23
2018-07-14T12:32:45.621Z,4.77
2018-07-14T12:35:14.190Z,5.37
2018-07-14T12:37:42.774Z,5.57
2018-07-14T12:40:11.329Z,4.90
2018-07-14T12:42:39.898Z,4.63
2018-07-14T12:45:08.520Z,5.47
2018-07-14T12:47:37.100Z,5.47
2018-07-14T12:50:05.664Z,7.07
2018-07-14T12:52:34.243Z,5.37
2018-07-14T12:55:02.785Z,6.80
2018-07-14T12:57:31.374Z,5.25
2018-07-14T12:59:59.980Z,5.83
2018-07-14T13:02:28.552Z,7.03
2018-07-14T13:04:57.096Z,5.30
2018-07-14T13:07:25.634Z,6.10
2018-07-14T13:09:54.209Z,5.87
2018-07-14T13:12:22.772Z,6.57
2018-07-14T13:14:51.356Z,5.90
2018-07-14T13:17:20.011Z,6.93
2018-07-14T13:19:48.532Z,6.07
2018-07-14T13:22:17.097Z,6.20
2018-07-14T13:24:45.676Z,8.07
2018-07-14T13:27:14.246Z,6.27
2018-07-14T13:29:42.836Z,6.10
2018-07-14T13:32:11.386Z,6.00
2018-07-14T13:34:40.164Z,5.23
2018-07-14T13:37:08.732Z,6.20
2018-07-14T13:39:37.290Z,6.10
2018-07-14T13:42:06.069Z,5.70
2018-07-14T13:44:34.624Z,5.43
2018-07-14T13:47:03.149Z,8.00
2018-07-14T13:49:31.717Z,5.43
2018-07-14T13:52:00.252Z,5.80
2018-07-14T13:54:28.816Z,6.03
2018-07-14T13:57:03.740Z,6.37
2018-07-14T13:59:32.343Z,6.07
2018-07-14T14:02:00.865Z,13.03
2018-07-14T14:04:29.425Z,6.60
2018-07-14T14:06:58.811Z,5.40
2018-07-14T14:09:27.446Z,5.83
2018-07-14T14:12:00.539Z,5.57
2018-07-14T14:14:37.512Z,7.10
2018-07-14T14:17:09.392Z,9.40
2018-07-14T14:19:46.520Z,6.07
2018-07-14T14:22:20.076Z,5.43
2018-07-14T14:24:52.329Z,6.27
2018-07-14T14:27:23.336Z,5.37
2018-07-14T14:29:53.512Z,5.40
2018-07-14T14:32:22.053Z,5.83
2018-07-14T14:34:58.201Z,5.40
2018-07-14T14:37:32.095Z,5.63
2018-07-14T14:40:04.479Z,5.07
2018-07-14T14:42:36.169Z,4.63
2018-07-14T14:45:07.509Z,4.87
2018-07-14T14:47:37.775Z,4.83
2018-07-14T14:50:13.708Z,5.37
2018-07-14T14:52:44.420Z,5.23
2018-07-14T14:55:18.343Z,7.20
2018-07-14T14:57:53.040Z,5.33
2018-07-14T15:00:24.749Z,5.17
2018-07-14T15:02:53.357Z,4.87
2018-07-14T15:05:21.953Z,4.77
2018-07-14T15:07:50.798Z,4.83
2018-07-14T15:10:19.454Z,5.23
2018-07-14T15:12:48.093Z,5.20
2018-07-14T15:15:16.752Z,5.03
2018-07-14T15:17:45.305Z,4.87
2018-07-14T15:20:17.290Z,5.13
2018-07-14T15:22:45.905Z,4.93
2018-07-14T15:25:14.521Z,4.63
2018-07-14T15:27:43.454Z,3.90
2018-07-14T15:30:12.413Z,4.77
2018-07-14T15:32:41.597Z,4.60
2018-07-14T15:35:10.159Z,4.43
2018-07-14T15:37:38.736Z,4.40
2018-07-14T15:40:07.304Z,4.53
2018-07-14T15:42:36.732Z,4.93
2018-07-14T15:45:05.564Z,6.50
2018-07-14T15:47:34.133Z,4.83
2018-07-14T15:50:02.705Z,5.50
2018-07-14T15:52:31.303Z,4.28
2018-07-14T15:54:59.891Z,4.20
2018-07-14T15:57:28.473Z,5.03
2018-07-14T15:59:57.034Z,5.10
2018-07-14T16:02:25.585Z,4.80
2018-07-14T16:04:54.141Z,4.40
2018-07-14T16:07:22.689Z,4.57
2018-07-14T16:09:52.105Z,5.03
2018-07-14T16:12:20.649Z,4.03
2018-07-14T16:14:49.167Z,4.73
2018-07-14T16:17:17.733Z,4.37
2018-07-14T16:19:46.329Z,4.47
2018-07-14T16:22:15.106Z,4.63
2018-07-14T16:24:43.616Z,5.73
2018-07-14T16:27:12.186Z,5.07
2018-07-14T16:29:40.705Z,4.70
2018-07-14T16:32:09.264Z,4.70
2018-07-14T16:34:37.828Z,4.90
2018-07-14T16:37:06.508Z,5.10
2018-07-14T16:39:37.030Z,5.10
2018-07-14T16:42:05.916Z,4.30
2018-07-14T16:44:34.767Z,4.70
2018-07-14T16:47:03.508Z,4.93
2018-07-14T16:49:32.313Z,4.53
2018-07-14T16:52:01.168Z,4.53
2018-07-14T16:54:29.725Z,4.20
2018-07-14T16:56:58.331Z,4.75
2018-07-14T16:59:26.852Z,5.87
2018-07-14T17:01:55.408Z,4.20
2018-07-14T17:04:23.949Z,4.33
2018-07-14T17:06:53.453Z,4.30
2018-07-14T17:09:22.025Z,4.33
2018-07-14T17:11:50.832Z,6.50
2018-07-14T17:14:19.408Z,5.37
2018-07-14T17:16:47.934Z,4.20
2018-07-14T17:19:16.445Z,4.97
2018-07-14T17:21:45.045Z,4.10
2018-07-14T17:24:13.578Z,3.42
2018-07-14T17:26:42.134Z,3.70
2018-07-14T17:29:10.662Z,3.58
2018-07-14T17:31:39.225Z,3.83
2018-07-14T17:34:07.808Z,5.42
2018-07-14T17:36:36.384Z,3.27
2018-07-14T17:39:06.557Z,3.70
2018-07-14T17:41:35.156Z,3.60
2018-07-14T17:44:03.781Z,3.58
2018-07-14T17:46:32.649Z,3.80
2018-07-14T17:49:01.185Z,5.28
2018-07-14T17:51:29.787Z,5.17
2018-07-14T17:53:58.329Z,6.12
2018-07-14T17:56:26.920Z,5.28
2018-07-14T17:58:55.556Z,4.60
2018-07-14T18:01:24.126Z,4.53
2018-07-14T18:03:52.649Z,6.15
2018-07-14T18:06:21.222Z,7.65
2018-07-14T18:08:49.784Z,5.10
2018-07-14T18:11:18.319Z,6.85
2018-07-14T18:13:46.925Z,6.07
2018-07-14T18:16:15.468Z,7.93
2018-07-14T18:18:44.046Z,12.30
2018-07-14T18:21:12.921Z,5.90
2018-07-14T18:23:41.489Z,5.53
2018-07-14T18:26:10.102Z,14.40
2018-07-14T18:28:38.672Z,21.83
2018-07-14T18:31:07.352Z,9.87
2018-07-14T18:33:35.944Z,7.90
2018-07-14T18:36:04.513Z,5.43
2018-07-14T18:38:33.087Z,5.22
2018-07-14T18:41:01.622Z,5.77
2018-07-14T18:43:30.216Z,5.00
2018-07-14T18:45:58.752Z,4.87
2018-07-14T18:48:27.340Z,5.53
2018-07-14T18:50:55.888Z,9.53
2018-07-14T18:53:24.780Z,6.43
2018-07-14T18:55:53.336Z,7.13
2018-07-14T18:58:21.907Z,8.07
2018-07-14T19:00:50.460Z,6.73
2018-07-14T19:03:19.072Z,6.87
2018-07-14T19:05:47.848Z,7.07
2018-07-14T19:08:16.421Z,6.03
2018-07-14T19:10:44.978Z,6.10
2018-07-14T19:13:13.579Z,6.07
2018-07-14T19:15:42.179Z,5.83
2018-07-14T19:18:10.741Z,6.43
2018-07-14T19:20:39.277Z,9.97
2018-07-14T19:23:07.863Z,7.70
2018-07-14T19:25:36.408Z,6.60
2018-07-14T19:28:05.008Z,6.67
2018-07-14T19:30:33.552Z,7.07
2018-07-14T19:33:02.163Z,6.75
2018-07-14T19:35:30.742Z,5.63
2018-07-14T19:37:59.296Z,4.97
2018-07-14T19:40:27.829Z,6.20
2018-07-14T19:42:56.438Z,6.57
2018-07-14T19:45:24.960Z,6.60
2018-07-14T19:47:53.512Z,6.13
2018-07-14T19:50:22.050Z,5.93
2018-07-14T19:52:50.631Z,6.60
2018-07-14T19:55:19.148Z,7.07
2018-07-14T19:57:47.720Z,7.80
2018-07-14T20:00:16.254Z,7.10
2018-07-14T20:02:44.801Z,7.27
2018-07-14T20:05:13.368Z,7.80
2018-07-14T20:07:41.903Z,9.67
2018-07-14T20:10:10.457Z,7.13
2018-07-14T20:12:38.976Z,8.27
2018-07-14T20:15:07.552Z,7.83
2018-07-14T20:17:36.064Z,8.13
2018-07-14T20:20:04.629Z,8.40
2018-07-14T20:22:33.192Z,8.80
2018-07-14T20:25:01.736Z,9.50
2018-07-14T20:27:30.253Z,8.17
2018-07-14T20:29:58.861Z,7.40
2018-07-14T20:32:27.368Z,5.63
2018-07-14T20:34:56.661Z,6.03
2018-07-14T20:37:25.204Z,6.77
2018-07-14T20:39:53.757Z,7.07
2018-07-14T20:42:22.273Z,8.53
2018-07-14T20:44:51.111Z,10.87
2018-07-14T20:47:19.628Z,9.37
2018-07-14T20:49:48.200Z,12.47
2018-07-14T20:52:16.765Z,10.87
2018-07-14T20:54:45.355Z,10.93
2018-07-14T20:57:13.891Z,10.43
2018-07-14T20:59:42.449Z,10.47
2018-07-14T21:02:10.971Z,11.93
2018-07-14T21:04:39.524Z,10.40
2018-07-14T21:07:08.041Z,9.40
2018-07-14T21:09:36.653Z,10.30
2018-07-14T21:12:05.211Z,9.07
2018-07-14T21:14:33.805Z,9.30
2018-07-14T21:17:06.432Z,8.37
2018-07-14T21:19:36.707Z,7.85
2018-07-14T21:22:06.752Z,9.20
2018-07-14T21:24:35.364Z,7.22
2018-07-14T21:27:03.900Z,9.20
2018-07-14T21:29:33.332Z,8.70
2018-07-14T21:32:01.967Z,8.70
2018-07-14T21:34:32.833Z,9.03
2018-07-14T21:37:01.401Z,8.50
2018-07-14T21:39:30.171Z,7.67
2018-07-14T21:41:59.090Z,7.00
2018-07-14T21:44:28.768Z,8.97
2018-07-14T21:46:57.312Z,8.93
2018-07-14T21:49:26.089Z,8.60
2018-07-14T21:51:56.853Z,9.20
2018-07-14T21:54:27.002Z,8.77
2018-07-14T21:56:56.052Z,8.93
2018-07-14T21:59:24.661Z,9.00
2018-07-14T22:01:53.560Z,9.23
2018-07-14T22:04:22.729Z,9.07
2018-07-14T22:06:52.067Z,11.33
2018-07-14T22:09:20.653Z,9.97
2018-07-14T22:11:49.572Z,10.50
2018-07-14T22:14:18.313Z,10.23
2018-07-14T22:16:49.964Z,11.20
2018-07-14T22:19:20.717Z,11.30
2018-07-14T22:21:50.725Z,10.70
2018-07-14T22:24:19.357Z,11.13
2018-07-14T22:26:48.365Z,11.00
2018-07-14T22:29:17.859Z,10.60
2018-07-14T22:31:47.028Z,10.50
2018-07-14T22:34:16.049Z,11.90
2018-07-14T22:36:47.092Z,10.90
2018-07-14T22:39:17.807Z,11.40
2018-07-14T22:41:49.274Z,11.10
2018-07-14T22:44:19.890Z,10.27
2018-07-14T22:46:49.982Z,9.63
2018-07-14T22:49:19.457Z,10.10
2018-07-14T22:51:48.693Z,9.97
2018-07-14T22:54:18.276Z,10.13
2018-07-14T22:56:48.211Z,11.63
2018-07-14T22:59:17.054Z,10.93
2018-07-14T23:01:46.922Z,11.25
2018-07-14T23:04:16.702Z,11.73
2018-07-14T23:06:47.433Z,11.37
2018-07-14T23:09:17.955Z,11.27
2018-07-14T23:11:47.458Z,10.93
2018-07-14T23:14:23.380Z,13.77
2018-07-14T23:16:53.186Z,12.17
2018-07-14T23:19:22.026Z,10.67
2018-07-14T23:21:51.832Z,10.77
2018-07-14T23:24:22.319Z,10.70
2018-07-14T23:26:51.931Z,11.00
2018-07-14T23:29:21.360Z,10.97
2018-07-14T23:31:51.056Z,11.00
2018-07-14T23:34:20.301Z,11.07
2018-07-14T23:36:50.301Z,10.73
2018-07-14T23:39:21.065Z,11.50
2018-07-14T23:41:51.834Z,10.93
2018-07-14T23:44:21.294Z,11.23
2018-07-14T23:46:50.775Z,11.73
2018-07-14T23:49:21.096Z,11.40
2018-07-14T23:51:50.099Z,11.07
2018-07-14T23:54:19.410Z,11.80
2018-07-14T23:56:48.794Z,11.23
2018-07-14T23:59:18.568Z,12.20
